Terminal Aerodrome Forecast
Issued by NWS

Home | Current Version | Previous Version | Text Only | Print | Product List | Glossary On
Versions: 1 2 3 4 5 6 7 8 9 10 11 12 13 14
103
FTUS43 KIND 032320
TAFLAF
TAF
KLAF 032320Z 0400/0424 VRB03KT P6SM BKN020
     FM040200 VRB03KT P6SM SCT020 BKN200
     FM041300 VRB03KT P6SM VCSH OVC080
     FM041600 12005KT P6SM VCSH OVC020
     FM041800 13004KT 2SM -RA OVC015
      AMD LTD TO CLD VIS AND WIND 0402/0414=

USA.gov is the U.S. government's official web portal to all federal, state and local government web resources and services.